createdAt,value
2024-04-25T00:00:00.610Z,26.08
2024-04-25T00:03:03.019Z,24.73
2024-04-25T00:06:05.267Z,21.50
2024-04-25T00:09:07.469Z,26.80
2024-04-25T00:12:09.698Z,25.25
2024-04-25T00:15:11.878Z,24.90
2024-04-25T00:18:14.127Z,26.60
2024-04-25T00:21:16.352Z,28.08
2024-04-25T00:24:18.964Z,27.05
2024-04-25T00:27:21.084Z,28.43
2024-04-25T00:30:23.179Z,25.02
2024-04-25T00:33:25.427Z,25.30
2024-04-25T00:36:27.583Z,20.90
2024-04-25T00:39:29.711Z,25.58
2024-04-25T00:42:31.830Z,25.92
2024-04-25T00:45:34.029Z,23.65
2024-04-25T00:48:36.373Z,22.00
2024-04-25T00:51:39.033Z,24.00
2024-04-25T00:54:41.180Z,17.15
2024-04-25T00:57:44.278Z,26.13
2024-04-25T01:00:47.675Z,22.75
2024-04-25T01:03:51.864Z,23.70
2024-04-25T01:06:55.411Z,26.00
2024-04-25T01:09:57.664Z,28.77
2024-04-25T01:12:59.828Z,24.52
2024-04-25T01:16:02.970Z,23.17
2024-04-25T01:19:05.139Z,29.67
2024-04-25T01:22:07.685Z,26.42
2024-04-25T01:25:10.017Z,25.20
2024-04-25T01:28:14.016Z,22.50
2024-04-25T01:31:16.152Z,23.30
2024-04-25T01:34:18.488Z,27.08
2024-04-25T01:37:20.697Z,24.57
2024-04-25T01:40:22.838Z,26.25
2024-04-25T01:43:24.973Z,29.50
2024-04-25T01:46:27.092Z,32.38
2024-04-25T01:49:29.262Z,31.80
2024-04-25T01:52:31.361Z,32.08
2024-04-25T01:55:33.517Z,28.70
2024-04-25T01:58:35.630Z,28.57
2024-04-25T02:01:37.899Z,27.85
2024-04-25T02:04:40.101Z,29.35
2024-04-25T02:07:42.228Z,31.90
2024-04-25T02:10:44.360Z,29.85
2024-04-25T02:13:46.480Z,27.45
2024-04-25T02:16:48.718Z,32.67
2024-04-25T02:19:51.614Z,29.00
2024-04-25T02:23:12.795Z,28.77
2024-04-25T02:26:14.996Z,28.33
2024-04-25T02:29:18.063Z,26.57
2024-04-25T02:32:20.391Z,27.90
2024-04-25T02:35:23.044Z,27.30
2024-04-25T02:38:25.256Z,28.43
2024-04-25T02:41:27.464Z,29.45
2024-04-25T02:44:29.621Z,28.25
2024-04-25T02:47:31.848Z,26.20
2024-04-25T02:50:34.070Z,28.20
2024-04-25T02:53:37.618Z,27.65
2024-04-25T02:56:39.844Z,24.25
2024-04-25T02:59:42.110Z,27.13
2024-04-25T03:02:44.658Z,25.13
2024-04-25T03:05:47.079Z,27.92
2024-04-25T03:08:49.301Z,27.67
2024-04-25T03:11:51.686Z,27.05
2024-04-25T03:14:53.882Z,25.02
2024-04-25T03:17:56.167Z,23.17
2024-04-25T03:21:02.401Z,27.35
2024-04-25T03:24:04.557Z,31.02
2024-04-25T03:27:06.745Z,25.45
2024-04-25T03:30:09.081Z,27.30
2024-04-25T03:33:11.332Z,27.42
2024-04-25T03:36:13.489Z,25.05
2024-04-25T03:39:21.324Z,29.93
2024-04-25T03:42:24.735Z,25.38
2024-04-25T03:45:26.832Z,26.67
2024-04-25T03:48:29.072Z,25.92
2024-04-25T03:51:31.289Z,24.48
2024-04-25T03:54:33.381Z,31.90
2024-04-25T03:57:35.571Z,25.92
2024-04-25T04:00:37.658Z,26.47
2024-04-25T04:03:39.865Z,28.92
2024-04-25T04:06:42.007Z,25.10
2024-04-25T04:09:44.126Z,26.07
2024-04-25T04:12:46.410Z,27.23
2024-04-25T04:15:48.540Z,26.83
2024-04-25T04:18:50.945Z,26.35
2024-04-25T04:21:53.204Z,22.77
2024-04-25T04:24:55.316Z,26.30
2024-04-25T04:27:57.548Z,26.35
2024-04-25T04:30:59.681Z,24.80
2024-04-25T04:34:01.885Z,25.55
2024-04-25T04:37:04.145Z,26.10
2024-04-25T04:40:06.539Z,26.43
2024-04-25T04:43:08.720Z,25.83
2024-04-25T04:46:10.834Z,22.08
2024-04-25T04:49:13.007Z,23.15
2024-04-25T04:52:15.338Z,21.83
2024-04-25T04:55:17.566Z,23.52
2024-04-25T04:58:19.768Z,25.83
2024-04-25T05:01:21.876Z,21.40
2024-04-25T05:04:24.152Z,23.23
2024-04-25T05:07:26.306Z,21.33
2024-04-25T05:10:28.812Z,22.80
2024-04-25T05:13:31.016Z,22.35
2024-04-25T05:16:34.688Z,24.10
2024-04-25T05:19:39.191Z,19.70
2024-04-25T05:22:41.412Z,22.05
2024-04-25T05:25:43.593Z,22.95
2024-04-25T05:28:45.731Z,24.40
2024-04-25T05:31:47.964Z,22.80
2024-04-25T05:34:53.310Z,25.98
2024-04-25T05:37:55.601Z,19.90
2024-04-25T05:40:59.714Z,24.47
2024-04-25T05:44:01.970Z,18.48
2024-04-25T05:47:04.397Z,22.05
2024-04-25T05:50:09.340Z,21.17
2024-04-25T05:53:12.217Z,21.27
2024-04-25T05:56:14.457Z,19.85
2024-04-25T05:59:17.346Z,22.67
2024-04-25T06:02:19.769Z,21.00
2024-04-25T06:05:22.071Z,20.38
2024-04-25T06:08:24.309Z,20.17
2024-04-25T06:11:28.692Z,19.90
2024-04-25T06:14:31.159Z,19.17
2024-04-25T06:17:33.563Z,16.67
2024-04-25T06:20:36.251Z,27.00
2024-04-25T06:23:38.637Z,15.90
2024-04-25T06:26:41.154Z,19.25
2024-04-25T06:29:43.442Z,19.55
2024-04-25T06:32:45.782Z,21.10
2024-04-25T06:35:48.580Z,17.77
2024-04-25T06:38:50.955Z,15.50
2024-04-25T06:41:58.464Z,16.73
2024-04-25T06:45:01.855Z,15.07
2024-04-25T06:48:06.257Z,17.70
2024-04-25T06:51:08.579Z,17.02
2024-04-25T06:54:13.539Z,16.05
2024-04-25T06:57:19.700Z,19.73
2024-04-25T07:00:22.305Z,15.75
2024-04-25T07:03:24.572Z,16.60
2024-04-25T07:06:26.892Z,16.38
2024-04-25T07:09:29.363Z,19.38
2024-04-25T07:12:33.748Z,14.15
2024-04-25T07:15:35.944Z,18.60
2024-04-25T07:18:38.405Z,20.23
2024-04-25T07:21:40.608Z,16.15
2024-04-25T07:24:43.555Z,18.15
2024-04-25T07:27:45.858Z,18.50
2024-04-25T07:30:48.683Z,15.50
2024-04-25T07:33:50.986Z,13.80
2024-04-25T07:36:53.623Z,17.03
2024-04-25T07:39:56.002Z,13.30
2024-04-25T07:42:59.774Z,13.25
2024-04-25T07:46:03.961Z,12.50
2024-04-25T07:49:07.598Z,14.05
2024-04-25T07:52:10.495Z,14.40
2024-04-25T07:55:15.724Z,14.73
2024-04-25T07:58:18.062Z,12.80
2024-04-25T08:01:20.347Z,15.27
2024-04-25T08:04:22.556Z,19.02
2024-04-25T08:07:24.901Z,12.47
2024-04-25T08:10:29.062Z,11.93
2024-04-25T08:13:31.677Z,15.82
2024-04-25T08:16:34.107Z,13.25
2024-04-25T08:19:36.354Z,12.70
2024-04-25T08:22:38.723Z,13.70
2024-04-25T08:25:40.990Z,11.97
2024-04-25T08:28:45.984Z,15.30
2024-04-25T08:31:49.582Z,16.98
2024-04-25T08:34:51.863Z,14.10
2024-04-25T08:37:55.607Z,12.50
2024-04-25T08:40:59.558Z,11.40
2024-04-25T08:44:03.578Z,11.70
2024-04-25T08:47:06.083Z,13.90
2024-04-25T08:50:10.835Z,13.43
2024-04-25T08:53:15.870Z,13.07
2024-04-25T08:56:18.300Z,14.43
2024-04-25T08:59:20.663Z,11.73
2024-04-25T09:02:24.207Z,14.70
2024-04-25T09:05:27.584Z,10.95
2024-04-25T09:08:30.474Z,13.83
2024-04-25T09:11:32.664Z,11.83
2024-04-25T09:14:35.401Z,10.13
2024-04-25T09:17:39.497Z,12.27
2024-04-25T09:20:45.398Z,10.85
2024-04-25T09:23:48.304Z,11.80
2024-04-25T09:26:51.390Z,9.93
2024-04-25T09:29:56.926Z,10.48
2024-04-25T09:33:04.724Z,9.40
2024-04-25T09:36:11.169Z,12.57
2024-04-25T09:39:13.892Z,12.60
2024-04-25T09:42:16.871Z,10.93
2024-04-25T09:45:22.857Z,12.05
2024-04-25T09:48:31.199Z,9.68
2024-04-25T09:52:03.754Z,10.77
2024-04-25T09:55:06.353Z,12.00
2024-04-25T09:58:13.964Z,9.37
2024-04-25T10:01:16.653Z,9.88
2024-04-25T10:04:19.995Z,10.10
2024-04-25T10:07:24.677Z,9.07
2024-04-25T10:10:27.872Z,10.53
2024-04-25T10:13:30.443Z,7.57
2024-04-25T10:16:32.672Z,8.10
2024-04-25T10:19:40.327Z,8.50
2024-04-25T10:22:43.229Z,12.10
2024-04-25T10:25:52.321Z,10.47
2024-04-25T10:29:09.775Z,11.17
2024-04-25T10:32:12.472Z,7.03
2024-04-25T10:35:15.083Z,8.48
2024-04-25T10:38:23.936Z,9.60
2024-04-25T10:41:41.528Z,8.10
2024-04-25T10:44:44.609Z,8.73
2024-04-25T10:47:47.342Z,8.45
2024-04-25T10:50:49.794Z,7.43
2024-04-25T10:53:52.139Z,8.70
2024-04-25T10:56:54.441Z,9.73
2024-04-25T10:59:59.882Z,6.87
2024-04-25T11:03:10.276Z,7.18
2024-04-25T11:06:12.535Z,7.38
2024-04-25T11:09:15.107Z,9.70
2024-04-25T11:12:17.711Z,8.43
2024-04-25T11:15:22.363Z,9.63
2024-04-25T11:18:26.295Z,7.88
2024-04-25T11:21:30.826Z,7.78
2024-04-25T11:24:34.269Z,7.97
2024-04-25T11:27:37.178Z,8.30
2024-04-25T11:30:40.016Z,9.97
2024-04-25T11:33:43.996Z,7.80
2024-04-25T11:36:55.998Z,7.07
2024-04-25T11:39:58.188Z,7.35
2024-04-25T11:43:00.619Z,13.30
2024-04-25T11:46:03.011Z,8.87
2024-04-25T11:49:05.559Z,8.60
2024-04-25T11:52:07.946Z,7.57
2024-04-25T11:55:10.236Z,7.55
2024-04-25T11:58:12.557Z,6.20
2024-04-25T12:01:14.897Z,7.17
2024-04-25T12:04:17.256Z,6.65
2024-04-25T12:07:19.445Z,6.88
2024-04-25T12:10:21.721Z,6.35
2024-04-25T12:13:24.139Z,5.40
2024-04-25T12:16:26.391Z,8.63
2024-04-25T12:19:28.770Z,5.90
2024-04-25T12:22:31.234Z,4.90
2024-04-25T12:25:33.808Z,6.32
2024-04-25T12:28:36.601Z,6.53
2024-04-25T12:31:39.008Z,8.63
2024-04-25T12:34:41.276Z,5.25
2024-04-25T12:37:43.482Z,5.32
2024-04-25T12:40:45.807Z,5.75
2024-04-25T12:43:49.776Z,4.60
2024-04-25T12:46:52.059Z,8.53
2024-04-25T12:49:54.300Z,5.22
2024-04-25T12:53:00.261Z,6.30
2024-04-25T12:56:02.671Z,7.22
2024-04-25T12:59:04.892Z,4.97
2024-04-25T13:02:07.099Z,6.33
2024-04-25T13:05:09.361Z,5.68
2024-04-25T13:08:11.631Z,5.97
2024-04-25T13:11:13.985Z,5.20
2024-04-25T13:14:16.172Z,5.63
2024-04-25T13:17:18.486Z,6.77
2024-04-25T13:20:22.097Z,7.10
2024-04-25T13:23:24.455Z,5.43
2024-04-25T13:26:31.481Z,5.43
2024-04-25T13:29:33.963Z,6.17
2024-04-25T13:32:38.989Z,5.63
2024-04-25T13:35:43.233Z,6.82
2024-04-25T13:38:47.148Z,6.63
2024-04-25T13:41:49.642Z,7.13
2024-04-25T13:44:51.883Z,7.73
2024-04-25T13:47:54.163Z,5.50
2024-04-25T13:50:56.565Z,4.70
2024-04-25T13:54:00.547Z,4.78
2024-04-25T13:57:09.171Z,5.47
2024-04-25T14:00:12.476Z,5.13
2024-04-25T14:03:15.086Z,7.87
2024-04-25T14:06:17.242Z,5.90
2024-04-25T14:09:21.480Z,4.93
2024-04-25T14:12:24.851Z,6.20
2024-04-25T14:15:28.842Z,5.90
2024-04-25T14:18:31.067Z,6.30
2024-04-25T14:21:35.492Z,9.32
2024-04-25T14:24:39.862Z,7.32
2024-04-25T14:28:00.500Z,8.80
2024-04-25T14:31:02.654Z,6.30
2024-04-25T14:34:05.123Z,4.90
2024-04-25T14:37:07.451Z,5.95
2024-04-25T14:40:11.304Z,5.35
2024-04-25T14:43:13.582Z,5.47
2024-04-25T14:46:15.727Z,6.20
2024-04-25T14:49:17.898Z,7.43
2024-04-25T14:52:20.186Z,6.20
2024-04-25T14:55:22.418Z,8.43
2024-04-25T14:58:24.692Z,5.43
2024-04-25T15:01:26.854Z,8.30
2024-04-25T15:04:29.186Z,5.73
2024-04-25T15:07:31.387Z,9.63
2024-04-25T15:10:35.212Z,5.70
2024-04-25T15:13:37.369Z,5.72
2024-04-25T15:16:41.944Z,6.83
2024-04-25T15:19:45.843Z,6.27
2024-04-25T15:22:48.479Z,5.97
2024-04-25T15:25:50.818Z,6.55
2024-04-25T15:28:52.982Z,5.97
2024-04-25T15:31:55.162Z,5.80
2024-04-25T15:34:57.479Z,11.30
2024-04-25T15:37:59.658Z,8.13
2024-04-25T15:41:01.818Z,8.32
2024-04-25T15:44:04.117Z,6.70
2024-04-25T15:47:06.434Z,6.03
2024-04-25T15:50:08.673Z,7.43
2024-04-25T15:53:10.832Z,5.22
2024-04-25T15:56:13.071Z,4.63
2024-04-25T15:59:15.687Z,8.55
2024-04-25T16:02:20.093Z,5.27
2024-04-25T16:05:22.518Z,7.30
2024-04-25T16:08:25.818Z,6.10
2024-04-25T16:11:29.109Z,6.40
2024-04-25T16:14:31.335Z,7.38
2024-04-25T16:17:33.653Z,10.87
2024-04-25T16:20:36.255Z,11.30
2024-04-25T16:23:40.746Z,10.40
2024-04-25T16:26:44.561Z,11.40
2024-04-25T16:29:46.842Z,9.93
2024-04-25T16:32:51.192Z,7.93
2024-04-25T16:35:53.853Z,6.90
2024-04-25T16:38:56.978Z,6.38
2024-04-25T16:41:59.524Z,6.82
2024-04-25T16:45:02.947Z,7.03
2024-04-25T16:48:08.275Z,10.57
2024-04-25T16:51:10.676Z,7.87
2024-04-25T16:54:13.486Z,7.93
2024-04-25T16:57:15.715Z,7.38
2024-04-25T17:00:17.886Z,7.00
2024-04-25T17:03:23.255Z,9.53
2024-04-25T17:06:25.564Z,9.73
2024-04-25T17:09:28.778Z,7.80
2024-04-25T17:12:31.282Z,8.60
2024-04-25T17:15:33.462Z,8.98
2024-04-25T17:18:35.629Z,8.67
2024-04-25T17:21:39.073Z,11.53
2024-04-25T17:24:41.401Z,11.55
2024-04-25T17:27:44.018Z,10.70
2024-04-25T17:30:46.184Z,10.23
2024-04-25T17:33:48.748Z,10.83
2024-04-25T17:36:51.138Z,10.67
2024-04-25T17:39:54.333Z,10.43
2024-04-25T17:42:56.628Z,10.50
2024-04-25T17:45:59.044Z,9.40
2024-04-25T17:49:01.445Z,9.40
2024-04-25T17:52:04.804Z,11.27
2024-04-25T17:55:07.619Z,10.02
2024-04-25T17:58:09.869Z,13.40
2024-04-25T18:01:12.054Z,12.73
2024-04-25T18:04:14.291Z,13.40
2024-04-25T18:07:19.602Z,13.97
2024-04-25T18:10:21.964Z,19.75
2024-04-25T18:13:24.239Z,24.08
2024-04-25T18:16:26.361Z,24.50
2024-04-25T18:19:28.510Z,20.37
2024-04-25T18:22:30.700Z,19.27
2024-04-25T18:25:32.834Z,20.75
2024-04-25T18:28:35.119Z,21.10
2024-04-25T18:31:37.352Z,17.77
2024-04-25T18:34:44.977Z,22.95
2024-04-25T18:37:47.216Z,18.85
2024-04-25T18:40:49.370Z,18.05
2024-04-25T18:43:51.541Z,21.03
2024-04-25T18:46:53.665Z,23.60
2024-04-25T18:49:58.848Z,22.40
2024-04-25T18:53:00.955Z,24.88
2024-04-25T18:56:03.130Z,22.20
2024-04-25T18:59:05.499Z,18.45
2024-04-25T19:02:07.995Z,13.43
2024-04-25T19:05:10.351Z,11.17
2024-04-25T19:08:12.733Z,14.77
2024-04-25T19:11:14.874Z,15.88
2024-04-25T19:14:17.378Z,18.00
2024-04-25T19:17:19.651Z,12.00
2024-04-25T19:20:21.963Z,16.08
2024-04-25T19:23:24.235Z,15.48
2024-04-25T19:26:26.383Z,14.15
2024-04-25T19:29:32.651Z,18.58
2024-04-25T19:32:36.202Z,16.27
2024-04-25T19:35:38.453Z,19.70
2024-04-25T19:38:41.598Z,15.23
2024-04-25T19:41:44.443Z,20.23
2024-04-25T19:44:46.808Z,20.08
2024-04-25T19:47:52.870Z,22.40
2024-04-25T19:50:55.140Z,23.40
2024-04-25T19:53:59.760Z,21.73
2024-04-25T19:57:04.355Z,23.52
2024-04-25T20:00:06.997Z,23.63
2024-04-25T20:03:09.235Z,22.83
2024-04-25T20:06:12.096Z,24.85
2024-04-25T20:09:14.238Z,27.02
2024-04-25T20:12:16.437Z,25.42
2024-04-25T20:15:18.580Z,19.65
2024-04-25T20:18:39.592Z,18.73
2024-04-25T20:21:43.709Z,22.70
2024-04-25T20:24:49.209Z,21.85
2024-04-25T20:27:51.377Z,17.45
2024-04-25T20:30:53.574Z,18.43
2024-04-25T20:33:55.883Z,20.17
2024-04-25T20:36:58.050Z,22.98
2024-04-25T20:40:00.200Z,28.73
2024-04-25T20:43:02.348Z,24.50
2024-04-25T20:46:04.860Z,25.55
2024-04-25T20:49:07.110Z,22.98
2024-04-25T20:52:09.473Z,15.23
2024-04-25T20:55:13.922Z,16.38
2024-04-25T20:58:16.083Z,13.48
2024-04-25T21:01:18.267Z,12.83
2024-04-25T21:04:20.480Z,15.75
2024-04-25T21:07:22.636Z,17.75
2024-04-25T21:10:25.170Z,12.75
2024-04-25T21:13:31.184Z,16.33
2024-04-25T21:16:41.135Z,13.98
2024-04-25T21:19:43.424Z,14.75
2024-04-25T21:22:45.578Z,11.60
2024-04-25T21:25:54.110Z,12.57
2024-04-25T21:29:01.073Z,14.98
2024-04-25T21:32:03.246Z,14.73
2024-04-25T21:35:05.641Z,14.60
2024-04-25T21:38:07.742Z,13.25
2024-04-25T21:41:10.464Z,11.68
2024-04-25T21:44:13.486Z,16.27
2024-04-25T21:47:16.352Z,17.50
2024-04-25T21:50:18.611Z,16.83
2024-04-25T21:53:21.367Z,20.07
2024-04-25T21:56:23.811Z,18.23
2024-04-25T21:59:25.981Z,23.85
2024-04-25T22:02:28.133Z,25.33
2024-04-25T22:05:30.320Z,23.90
2024-04-25T22:08:32.514Z,25.70
2024-04-25T22:11:34.750Z,29.10
2024-04-25T22:14:36.918Z,27.33
2024-04-25T22:17:39.227Z,19.90
2024-04-25T22:20:41.859Z,26.52
2024-04-25T22:23:44.189Z,22.03
2024-04-25T22:26:46.411Z,20.42
2024-04-25T22:29:48.622Z,19.73
2024-04-25T22:32:50.967Z,24.83
2024-04-25T22:35:53.315Z,20.75
2024-04-25T22:38:55.933Z,21.25
2024-04-25T22:41:58.189Z,18.10
2024-04-25T22:45:03.286Z,18.00
2024-04-25T22:48:07.138Z,20.05
2024-04-25T22:51:09.504Z,20.15
2024-04-25T22:54:11.747Z,15.20
2024-04-25T22:57:13.910Z,17.42
2024-04-25T23:00:16.267Z,16.27
2024-04-25T23:03:19.596Z,21.13
2024-04-25T23:06:22.713Z,25.10
2024-04-25T23:09:26.567Z,25.08
2024-04-25T23:12:28.786Z,25.48
2024-04-25T23:15:31.000Z,23.70
2024-04-25T23:18:33.237Z,21.52
2024-04-25T23:21:35.596Z,18.48
2024-04-25T23:24:37.788Z,18.87
2024-04-25T23:27:40.007Z,22.50
2024-04-25T23:30:42.141Z,21.42
2024-04-25T23:33:44.414Z,19.50
2024-04-25T23:36:46.698Z,28.55
2024-04-25T23:39:48.889Z,19.05
2024-04-25T23:42:51.129Z,25.30
2024-04-25T23:45:53.325Z,18.70
2024-04-25T23:48:55.520Z,20.00
2024-04-25T23:51:57.670Z,16.60
2024-04-25T23:54:59.806Z,17.00
2024-04-25T23:58:02.523Z,19.10
